createdAt,value
2023-03-17T00:02:42.947Z,39.70
2023-03-17T00:07:47.537Z,25.00
2023-03-17T00:12:53.503Z,30.50
2023-03-17T00:17:57.422Z,48.90
2023-03-17T00:23:04.699Z,35.00
2023-03-17T00:28:21.183Z,43.60
2023-03-17T00:33:28.160Z,26.10
2023-03-17T00:38:31.573Z,42.60
2023-03-17T00:43:34.578Z,34.70
2023-03-17T00:48:38.511Z,33.40
2023-03-17T00:53:41.625Z,28.80
2023-03-17T00:58:45.718Z,45.00
2023-03-17T01:03:48.751Z,30.80
2023-03-17T01:08:52.473Z,31.10
2023-03-17T01:13:55.796Z,36.60
2023-03-17T01:18:58.849Z,39.40
2023-03-17T01:24:02.931Z,32.80
2023-03-17T01:29:08.032Z,23.00
2023-03-17T01:34:11.709Z,40.30
2023-03-17T01:39:15.436Z,25.90
2023-03-17T01:44:19.776Z,27.20
2023-03-17T01:49:33.240Z,33.90
2023-03-17T01:54:42.890Z,24.50
2023-03-17T01:59:50.982Z,26.80
2023-03-17T02:04:54.331Z,30.10
2023-03-17T02:09:58.932Z,19.70
2023-03-17T02:15:03.386Z,26.60
2023-03-17T02:20:13.759Z,23.90
2023-03-17T02:30:23.399Z,19.40
2023-03-17T02:35:27.188Z,19.70
2023-03-17T02:40:30.440Z,23.60
2023-03-17T02:45:33.652Z,24.10
2023-03-17T02:50:37.629Z,16.70
2023-03-17T02:55:41.498Z,16.50
2023-03-17T03:00:44.708Z,24.70
2023-03-17T03:05:48.038Z,23.20
2023-03-17T03:10:51.065Z,18.50
2023-03-17T03:15:54.056Z,21.10
2023-03-17T03:20:57.040Z,20.70
2023-03-17T03:26:00.148Z,18.30
2023-03-17T03:31:03.531Z,16.40
2023-03-17T03:36:07.931Z,13.70
2023-03-17T03:41:11.382Z,20.00
2023-03-17T03:46:15.822Z,26.60
2023-03-17T03:51:18.968Z,17.60
2023-03-17T03:56:21.865Z,20.30
2023-03-17T04:01:24.968Z,27.30
2023-03-17T04:06:27.887Z,21.00
2023-03-17T04:11:31.189Z,21.90
2023-03-17T04:16:34.267Z,28.20
2023-03-17T04:21:37.511Z,19.30
2023-03-17T04:26:41.481Z,24.60
2023-03-17T04:31:44.416Z,25.00
2023-03-17T04:36:48.685Z,28.00
2023-03-17T04:41:51.585Z,30.70
2023-03-17T04:46:54.503Z,25.80
2023-03-17T04:51:57.492Z,27.40
2023-03-17T04:57:00.375Z,32.20
2023-03-17T05:02:03.423Z,27.00
2023-03-17T05:07:06.720Z,29.40
2023-03-17T05:12:11.025Z,24.60
2023-03-17T05:17:14.419Z,33.10
2023-03-17T05:22:17.381Z,33.80
2023-03-17T05:27:21.721Z,30.00
2023-03-17T05:32:24.924Z,24.10
2023-03-17T05:37:28.032Z,22.70
2023-03-17T05:42:31.107Z,37.30
2023-03-17T05:47:34.257Z,30.70
2023-03-17T05:52:38.271Z,25.30
2023-03-17T05:57:41.407Z,25.10
2023-03-17T06:02:44.931Z,35.50
2023-03-17T06:07:54.950Z,35.90
2023-03-17T06:13:00.706Z,30.20
2023-03-17T06:18:05.813Z,32.30
2023-03-17T06:23:09.124Z,32.40
2023-03-17T06:28:12.010Z,30.90
2023-03-17T06:33:16.025Z,28.70
2023-03-17T06:38:18.965Z,30.00
2023-03-17T06:43:24.958Z,25.80
2023-03-17T06:48:28.862Z,28.10
2023-03-17T06:53:32.352Z,29.70
2023-03-17T06:58:35.385Z,28.30
2023-03-17T07:03:38.909Z,27.80
2023-03-17T07:08:42.220Z,28.70
2023-03-17T07:13:45.437Z,29.30
2023-03-17T07:18:48.671Z,29.40
2023-03-17T07:23:51.861Z,36.90
2023-03-17T07:28:54.960Z,29.10
2023-03-17T07:33:58.070Z,33.00
2023-03-17T07:39:04.150Z,30.50
2023-03-17T07:44:07.267Z,26.90
2023-03-17T07:49:10.984Z,22.00
2023-03-17T07:54:16.013Z,23.70
2023-03-17T07:59:19.657Z,23.40
2023-03-17T08:04:22.874Z,22.30
2023-03-17T08:09:25.975Z,27.40
2023-03-17T08:14:29.905Z,24.50
2023-03-17T08:19:32.947Z,24.80
2023-03-17T08:24:37.359Z,23.90
2023-03-17T08:29:40.459Z,27.10
2023-03-17T08:34:44.691Z,20.40
2023-03-17T08:39:47.802Z,18.50
2023-03-17T08:44:50.910Z,38.00
2023-03-17T08:49:53.916Z,32.60
2023-03-17T08:54:57.028Z,29.50
2023-03-17T09:00:00.201Z,24.20
2023-03-17T09:05:04.149Z,22.60
2023-03-17T09:10:09.731Z,24.70
2023-03-17T09:15:12.845Z,24.30
2023-03-17T09:20:16.427Z,19.00
2023-03-17T09:25:19.365Z,21.20
2023-03-17T09:30:22.477Z,20.00
2023-03-17T09:35:28.142Z,19.20
2023-03-17T09:40:36.356Z,16.90
2023-03-17T09:45:43.656Z,19.00
2023-03-17T09:51:05.156Z,22.70
2023-03-17T09:56:13.940Z,20.30
2023-03-17T10:01:17.149Z,21.40
2023-03-17T10:06:43.726Z,16.80
2023-03-17T10:12:11.062Z,18.20
2023-03-17T10:17:19.282Z,15.70
2023-03-17T10:22:41.296Z,15.20
2023-03-17T10:27:53.024Z,15.90
2023-03-17T10:32:59.259Z,14.60
2023-03-17T10:38:16.415Z,17.50
2023-03-17T10:43:21.785Z,15.70
2023-03-17T10:48:25.298Z,16.70
2023-03-17T10:53:37.944Z,17.40
2023-03-17T10:58:49.079Z,16.30
2023-03-17T11:03:52.160Z,17.10
2023-03-17T11:08:55.979Z,15.30
2023-03-17T11:14:10.734Z,13.90
2023-03-17T11:19:17.277Z,13.90
2023-03-17T11:24:31.460Z,24.10
2023-03-17T11:29:37.894Z,15.20
2023-03-17T11:35:03.753Z,17.10
2023-03-17T11:40:22.037Z,10.50
2023-03-17T11:45:34.121Z,25.10
2023-03-17T11:51:04.160Z,14.00
2023-03-17T11:56:16.788Z,21.70
2023-03-17T12:01:27.339Z,12.80
2023-03-17T12:06:35.105Z,28.20
2023-03-17T12:11:43.530Z,12.00
2023-03-17T12:17:15.323Z,15.90
2023-03-17T12:22:21.692Z,13.70
2023-03-17T12:27:44.665Z,17.10
2023-03-17T12:32:59.478Z,20.50
2023-03-17T12:38:11.669Z,17.00
2023-03-17T12:43:48.776Z,13.90
2023-03-17T12:49:35.597Z,18.40
2023-03-17T12:54:44.852Z,16.10
2023-03-17T12:59:59.849Z,17.20
2023-03-17T13:05:07.907Z,14.50
2023-03-17T13:10:40.198Z,14.40
2023-03-17T13:15:43.201Z,19.50
2023-03-17T13:20:52.119Z,11.60
2023-03-17T13:25:55.323Z,14.60
2023-03-17T13:31:30.014Z,19.30
2023-03-17T13:36:48.236Z,16.60
2023-03-17T13:42:20.659Z,16.80
2023-03-17T13:47:23.844Z,14.00
2023-03-17T13:52:33.100Z,14.40
2023-03-17T13:57:39.984Z,17.80
2023-03-17T14:02:44.688Z,15.90
2023-03-17T14:07:56.863Z,16.50
2023-03-17T14:13:21.786Z,22.70
2023-03-17T14:18:36.580Z,13.20
2023-03-17T14:23:39.574Z,17.20
2023-03-17T14:28:42.579Z,14.80
2023-03-17T14:33:45.789Z,14.90
2023-03-17T14:38:51.776Z,14.90
2023-03-17T14:43:59.716Z,15.20
2023-03-17T14:49:21.642Z,9.90
2023-03-17T14:54:32.252Z,11.00
2023-03-17T14:59:43.012Z,12.20
2023-03-17T15:04:56.588Z,10.40
2023-03-17T15:10:02.330Z,12.60
2023-03-17T15:15:27.875Z,12.60
2023-03-17T15:20:35.499Z,15.70
2023-03-17T15:25:42.796Z,14.90
2023-03-17T15:30:49.044Z,13.50
2023-03-17T15:35:52.623Z,13.70
2023-03-17T15:40:56.323Z,15.50
2023-03-17T15:46:14.457Z,13.60
2023-03-17T15:51:17.912Z,13.40
2023-03-17T15:56:22.220Z,14.80
2023-03-17T16:01:27.775Z,15.80
2023-03-17T16:06:31.423Z,17.30
2023-03-17T16:11:34.628Z,13.40
2023-03-17T16:16:39.776Z,16.70
2023-03-17T16:21:43.513Z,16.10
2023-03-17T16:26:46.523Z,14.40
2023-03-17T16:31:51.300Z,14.50
2023-03-17T16:36:55.105Z,14.90
2023-03-17T16:41:59.763Z,16.10
2023-03-17T16:47:02.784Z,18.90
2023-03-17T16:52:06.063Z,18.00
2023-03-17T16:57:12.748Z,19.90
2023-03-17T17:02:16.372Z,13.70
2023-03-17T17:07:19.590Z,11.60
2023-03-17T17:12:22.592Z,12.70
2023-03-17T17:17:25.808Z,16.20
2023-03-17T17:22:29.530Z,15.40
2023-03-17T17:27:32.644Z,13.20
2023-03-17T17:32:36.178Z,14.20
2023-03-17T17:37:39.842Z,18.30
2023-03-17T17:42:44.301Z,13.60
2023-03-17T17:47:48.054Z,12.70
2023-03-17T17:52:51.046Z,16.40
2023-03-17T17:57:54.047Z,10.20
2023-03-17T18:02:57.364Z,19.70
2023-03-17T18:08:02.545Z,18.40
2023-03-17T18:13:05.627Z,17.60
2023-03-17T18:18:08.941Z,16.70
2023-03-17T18:23:12.364Z,15.20
2023-03-17T18:28:16.082Z,10.50
2023-03-17T18:33:20.106Z,16.50
2023-03-17T18:38:23.116Z,13.80
2023-03-17T18:43:26.440Z,11.40
2023-03-17T18:48:29.443Z,14.40
2023-03-17T18:53:34.734Z,15.40
2023-03-17T18:58:37.917Z,15.10
2023-03-17T19:03:41.550Z,16.40
2023-03-17T19:08:44.854Z,17.60
2023-03-17T19:13:48.359Z,12.30
2023-03-17T19:18:52.493Z,17.40
2023-03-17T19:24:00.084Z,14.90
2023-03-17T19:29:03.639Z,18.10
2023-03-17T19:34:08.163Z,26.70
2023-03-17T19:39:11.484Z,18.30
2023-03-17T19:44:14.806Z,14.60
2023-03-17T19:49:20.160Z,14.60
2023-03-17T19:54:23.519Z,16.90
2023-03-17T19:59:26.683Z,16.40
2023-03-17T20:04:30.311Z,17.90
2023-03-17T20:09:33.525Z,16.50
2023-03-17T20:14:36.932Z,16.00
2023-03-17T20:19:40.243Z,13.10
2023-03-17T20:24:43.665Z,17.70
2023-03-17T20:29:48.638Z,21.60
2023-03-17T20:34:51.725Z,17.50
2023-03-17T20:39:57.499Z,15.20
2023-03-17T20:45:00.802Z,13.50
2023-03-17T20:50:04.726Z,14.20
2023-03-17T20:55:13.967Z,16.90
2023-03-17T21:00:21.290Z,24.20
2023-03-17T21:05:27.638Z,25.60
2023-03-17T21:10:31.009Z,14.80
2023-03-17T21:15:34.728Z,11.80
2023-03-17T21:20:37.830Z,17.00
2023-03-17T21:25:41.295Z,19.30
2023-03-17T21:30:44.769Z,14.10
2023-03-17T21:35:48.330Z,11.20
2023-03-17T21:40:51.795Z,11.40
2023-03-17T21:45:55.172Z,18.20
2023-03-17T21:50:58.738Z,16.80
2023-03-17T21:56:02.361Z,15.40
2023-03-17T22:01:06.473Z,14.50
2023-03-17T22:06:11.512Z,12.60
2023-03-17T22:11:18.039Z,17.90
2023-03-17T22:16:21.791Z,14.60
2023-03-17T22:21:25.382Z,13.20
2023-03-17T22:26:28.789Z,19.40
2023-03-17T22:31:32.041Z,12.10
2023-03-17T22:36:35.320Z,15.80
2023-03-17T22:41:39.043Z,17.80
2023-03-17T22:46:42.052Z,17.20
2023-03-17T22:51:46.789Z,14.50
2023-03-17T22:56:49.896Z,14.50
2023-03-17T23:01:53.012Z,15.80
2023-03-17T23:06:56.536Z,14.00
2023-03-17T23:12:00.759Z,13.10
2023-03-17T23:17:06.163Z,13.00
2023-03-17T23:22:09.242Z,12.30
2023-03-17T23:27:12.352Z,15.10
2023-03-17T23:32:15.661Z,13.00
2023-03-17T23:37:18.767Z,18.30
2023-03-17T23:42:22.489Z,13.00
2023-03-17T23:47:26.581Z,12.90
2023-03-17T23:52:30.967Z,12.80
2023-03-17T23:57:35.091Z,13.40
